CJJ2 weather

Glenboro Airport
Glenboro, Manitoba, Canada

Public forecast

Using degrees Celsius for public forecast. Weather courtesy of forecast.io.

METAR (pilot weather report)

Closest report is Brandon Municipal Airport, 32.3 nm (59.8 km) NW. Retrieved 2019/05/21 03:00 UTC (9 minutes ago):

CYBR 210300Z 08011G18KT 15SM FEW090 FEW250 13/M01 A3010 RMK AC1CI1 AC TR SLP204

TAF (pilot weather forecast)

Forecast is more than 12 hours old.

Closest forecast is Brandon Municipal Airport, 32.3 nm (59.8 km) NW. Retrieved 2019/05/20 00:39 UTC (1 day ago):

TAF TAF CYBR 202338Z 2100/2112 12008KT P6SM SCT090 TEMPO 2100/2103 BKN090 FM210300 07006KT P6SM SKC RMK NXT FCST BY 210600Z